Montello, WI

6:27 PM CDT on July 29, 2016 (GMT -0500)
Manley's@Cant Hill | | Change Station

Elev 1000 ft 43.87 °N, 89.49 °W | Updated 4 minutes ago

Overcast
Overcast
69.3 °F
Feels Like 69.3 °F
N
1.0
Wind Variable Wind from North

Today
High -- | Low -- °F
--% Chance of Precip.
Yesterday
High -- | Low -- °F
Precip. -- in
Pressure 30.08 in
Visibility 10.0 miles
Clouds Overcast 4700 ft
Dew Point 66 °F
Humidity 88%
Rainfall 0.46 in
Snow Depth Not available.
5:43 AM 8:23 PM
Waning Crescent, 18% visible
METAR KY50 292256Z AUTO 03003KT 10SM OVC047 22/19 A3002 RMK AO2 SLP184 T02170189
Pressure 30.08 in
Visibility 10.0 miles
Clouds Overcast 4700 ft
Dew Point 66 °F
Humidity 88%
Rainfall 0.46 in
Snow Depth Not available.
5:43 AM 8:23 PM
Waning Crescent, 18% visible
METAR KY50 292256Z AUTO 03003KT 10SM OVC047 22/19 A3002 RMK AO2 SLP184 T02170189

10-Day Weather Forecast

Almanac

Astronomy

Jul. 29, 2016 Rise Set
Actual Time
Civil Twilight
Nautical Twilight
Astronomical Twilight
Moon
Length of Visible Light
Length of Day
Tomorrow will be .
, % of the Moon is Illuminated

Today's Extremes

State Highs State Lows

Community

WunderPhotos

Upload Photos

1,928,439 photos uploaded!

WunderBlog® & News

Nearby

Air Quality

  Air Quality AQ Index Pollutant
Not available.

Snow Depth

Station Depth Elevation

Earthquake Activity

City Distance Mag. Time & Date
Minimum magnitude displayed is 2.5.

Coastal Water Temperatures

Place Temperature

Stations

Nearby Weather Stations

Station Location Temp. Windchill Dew Point Humidity Wind Precip. Elev Updated Type
                   

Watches & Warnings

There are currently no watches in effect.